sensor_id;sensor_type;location;lat;lon;timestamp;pressure;altitude;pressure_sealevel;temperature;humidity
70758;BME280;59316;52.964;7.102;2023-04-08T00:02:07;63551.88;;;-143.20;100.00
70758;BME280;59316;52.964;7.102;2023-04-08T00:07:28;63551.88;;;-143.20;100.00
70758;BME280;59316;52.964;7.102;2023-04-08T00:12:50;63551.88;;;-143.20;100.00
70758;BME280;59316;52.964;7.102;2023-04-08T00:18:15;63551.88;;;-143.20;100.00
70758;BME280;59316;52.964;7.102;2023-04-08T00:23:37;63551.88;;;-143.20;100.00
70758;BME280;59316;52.964;7.102;2023-04-08T00:28:58;63551.88;;;-143.20;100.00
70758;BME280;59316;52.964;7.102;2023-04-08T00:34:20;63551.88;;;-143.20;100.00
70758;BME280;59316;52.964;7.102;2023-04-08T00:39:41;63551.88;;;-143.20;100.00
70758;BME280;59316;52.964;7.102;2023-04-08T00:45:03;63551.88;;;-143.20;100.00
70758;BME280;59316;52.964;7.102;2023-04-08T00:50:26;63551.88;;;-143.20;100.00
70758;BME280;59316;52.964;7.102;2023-04-08T00:55:48;63551.88;;;-143.20;100.00
70758;BME280;59316;52.964;7.102;2023-04-08T01:01:16;63551.88;;;-143.20;100.00
70758;BME280;59316;52.964;7.102;2023-04-08T01:07:09;63551.88;;;-143.20;100.00
70758;BME280;59316;52.964;7.102;2023-04-08T01:12:41;63551.88;;;-143.20;100.00
70758;BME280;59316;52.964;7.102;2023-04-08T01:18:10;63551.88;;;-143.20;100.00
70758;BME280;59316;52.964;7.102;2023-04-08T01:29:19;63551.88;;;-143.20;100.00
70758;BME280;59316;52.964;7.102;2023-04-08T01:34:41;63551.88;;;-143.20;100.00
70758;BME280;59316;52.964;7.102;2023-04-08T01:40:06;63551.88;;;-143.20;100.00
70758;BME280;59316;52.964;7.102;2023-04-08T01:45:30;63551.88;;;-143.20;100.00
70758;BME280;59316;52.964;7.102;2023-04-08T01:50:52;63551.88;;;-143.20;100.00
70758;BME280;59316;52.964;7.102;2023-04-08T01:56:15;63551.88;;;-143.20;100.00
70758;BME280;59316;52.964;7.102;2023-04-08T02:01:37;63551.88;;;-143.20;100.00
70758;BME280;59316;52.964;7.102;2023-04-08T02:07:00;102366.41;;;3.08;nan
70758;BME280;59316;52.964;7.102;2023-04-08T02:12:22;102361.00;;;3.48;nan
70758;BME280;59316;52.964;7.102;2023-04-08T02:17:44;102375.53;;;3.75;nan
70758;BME280;59316;52.964;7.102;2023-04-08T02:23:18;102377.25;;;3.78;nan
70758;BME280;59316;52.964;7.102;2023-04-08T02:28:42;102386.66;;;3.88;nan
70758;BME280;59316;52.964;7.102;2023-04-08T02:34:05;102382.31;;;3.89;nan
70758;BME280;59316;52.964;7.102;2023-04-08T02:39:31;102380.66;;;3.83;nan
70758;BME280;59316;52.964;7.102;2023-04-08T02:44:52;102393.72;;;3.63;nan
70758;BME280;59316;52.964;7.102;2023-04-08T02:50:15;102389.38;;;3.67;nan
70758;BME280;59316;52.964;7.102;2023-04-08T02:55:36;102393.78;;;3.51;nan
70758;BME280;59316;52.964;7.102;2023-04-08T03:00:58;102394.63;;;3.50;nan
70758;BME280;59316;52.964;7.102;2023-04-08T03:06:19;102403.31;;;3.41;nan
70758;BME280;59316;52.964;7.102;2023-04-08T03:11:41;102406.81;;;3.32;nan
70758;BME280;59316;52.964;7.102;2023-04-08T03:17:02;102398.09;;;3.49;nan
70758;BME280;59316;52.964;7.102;2023-04-08T03:22:24;102406.59;;;3.75;nan
70758;BME280;59316;52.964;7.102;2023-04-08T03:27:46;102402.16;;;3.90;nan
70758;BME280;59316;52.964;7.102;2023-04-08T03:33:07;102403.63;;;4.25;nan
70758;BME280;59316;52.964;7.102;2023-04-08T03:38:29;102404.38;;;4.39;nan
70758;BME280;59316;52.964;7.102;2023-04-08T03:43:50;102411.09;;;4.60;nan
70758;BME280;59316;52.964;7.102;2023-04-08T03:49:12;102405.81;;;4.70;nan
70758;BME280;59316;52.964;7.102;2023-04-08T03:54:33;102407.38;;;4.86;nan
70758;BME280;59316;52.964;7.102;2023-04-08T03:59:55;102399.56;;;4.89;nan
70758;BME280;59316;52.964;7.102;2023-04-08T04:05:16;102409.13;;;4.84;nan
70758;BME280;59316;52.964;7.102;2023-04-08T04:10:38;102413.34;;;4.94;nan
70758;BME280;59316;52.964;7.102;2023-04-08T04:15:59;102410.50;;;5.16;nan
70758;BME280;59316;52.964;7.102;2023-04-08T04:21:21;102408.00;;;5.08;nan
70758;BME280;59316;52.964;7.102;2023-04-08T04:26:42;102413.97;;;5.15;nan
70758;BME280;59316;52.964;7.102;2023-04-08T04:32:04;102417.41;;;5.17;nan
70758;BME280;59316;52.964;7.102;2023-04-08T04:37:26;102418.13;;;5.28;nan
70758;BME280;59316;52.964;7.102;2023-04-08T04:42:48;102413.72;;;5.35;nan
70758;BME280;59316;52.964;7.102;2023-04-08T04:48:09;102418.81;;;5.41;nan
70758;BME280;59316;52.964;7.102;2023-04-08T04:53:30;102412.03;;;5.31;nan
70758;BME280;59316;52.964;7.102;2023-04-08T04:58:52;102431.16;;;5.24;nan
70758;BME280;59316;52.964;7.102;2023-04-08T05:04:14;102438.97;;;5.21;nan
70758;BME280;59316;52.964;7.102;2023-04-08T05:09:35;102446.63;;;5.32;nan
70758;BME280;59316;52.964;7.102;2023-04-08T05:14:57;102448.44;;;5.25;nan
70758;BME280;59316;52.964;7.102;2023-04-08T05:20:19;102457.97;;;5.23;nan
70758;BME280;59316;52.964;7.102;2023-04-08T05:25:40;102460.53;;;5.24;nan
70758;BME280;59316;52.964;7.102;2023-04-08T05:31:02;102459.72;;;5.19;nan
70758;BME280;59316;52.964;7.102;2023-04-08T05:36:23;102472.66;;;5.25;nan
70758;BME280;59316;52.964;7.102;2023-04-08T05:41:45;102478.59;;;5.34;nan
70758;BME280;59316;52.964;7.102;2023-04-08T05:47:06;102471.56;;;5.43;nan
70758;BME280;59316;52.964;7.102;2023-04-08T05:52:28;102484.44;;;5.51;nan
70758;BME280;59316;52.964;7.102;2023-04-08T05:57:50;102485.03;;;5.75;nan
70758;BME280;59316;52.964;7.102;2023-04-08T06:03:11;102480.44;;;5.94;nan
70758;BME280;59316;52.964;7.102;2023-04-08T06:08:33;102480.63;;;6.39;nan
70758;BME280;59316;52.964;7.102;2023-04-08T06:13:55;102490.09;;;6.93;nan
70758;BME280;59316;52.964;7.102;2023-04-08T06:19:16;102485.34;;;7.17;nan
70758;BME280;59316;52.964;7.102;2023-04-08T06:24:38;102493.63;;;7.38;nan
70758;BME280;59316;52.964;7.102;2023-04-08T06:29:59;102509.03;;;7.49;nan
70758;BME280;59316;52.964;7.102;2023-04-08T06:35:21;102505.72;;;7.40;nan
70758;BME280;59316;52.964;7.102;2023-04-08T06:40:42;102516.38;;;7.72;nan
70758;BME280;59316;52.964;7.102;2023-04-08T06:46:04;102519.06;;;8.10;nan
70758;BME280;59316;52.964;7.102;2023-04-08T06:51:25;102523.53;;;8.78;nan
70758;BME280;59316;52.964;7.102;2023-04-08T06:56:47;102519.16;;;9.45;nan
70758;BME280;59316;52.964;7.102;2023-04-08T07:02:08;102513.34;;;9.02;nan
70758;BME280;59316;52.964;7.102;2023-04-08T07:07:30;102540.50;;;8.95;nan
70758;BME280;59316;52.964;7.102;2023-04-08T07:12:52;102539.91;;;8.83;nan
70758;BME280;59316;52.964;7.102;2023-04-08T07:18:14;102544.53;;;8.36;nan
70758;BME280;59316;52.964;7.102;2023-04-08T07:23:36;102539.81;;;8.52;nan
70758;BME280;59316;52.964;7.102;2023-04-08T07:28:57;102559.25;;;8.75;nan
70758;BME280;59316;52.964;7.102;2023-04-08T07:34:19;102553.56;;;9.28;nan
70758;BME280;59316;52.964;7.102;2023-04-08T07:39:40;102557.13;;;9.24;nan
70758;BME280;59316;52.964;7.102;2023-04-08T07:45:02;102553.84;;;8.82;nan
70758;BME280;59316;52.964;7.102;2023-04-08T07:50:24;102554.13;;;8.71;nan
70758;BME280;59316;52.964;7.102;2023-04-08T07:55:45;102557.31;;;8.83;nan
70758;BME280;59316;52.964;7.102;2023-04-08T08:01:20;102579.69;;;8.92;nan
70758;BME280;59316;52.964;7.102;2023-04-08T08:06:42;102573.75;;;9.21;nan
70758;BME280;59316;52.964;7.102;2023-04-08T08:12:04;102577.19;;;8.88;nan
70758;BME280;59316;52.964;7.102;2023-04-08T08:17:26;102580.31;;;9.36;nan
70758;BME280;59316;52.964;7.102;2023-04-08T08:22:48;102584.03;;;9.27;nan
70758;BME280;59316;52.964;7.102;2023-04-08T08:28:17;102580.09;;;9.44;nan
70758;BME280;59316;52.964;7.102;2023-04-08T08:33:38;102583.19;;;9.58;nan
70758;BME280;59316;52.964;7.102;2023-04-08T08:39:00;102590.13;;;9.91;nan
70758;BME280;59316;52.964;7.102;2023-04-08T08:44:22;102595.31;;;10.79;nan
70758;BME280;59316;52.964;7.102;2023-04-08T08:49:44;102597.28;;;10.72;nan
70758;BME280;59316;52.964;7.102;2023-04-08T08:55:05;102596.00;;;10.27;nan
70758;BME280;59316;52.964;7.102;2023-04-08T09:00:41;102601.97;;;10.62;nan
70758;BME280;59316;52.964;7.102;2023-04-08T09:06:03;102597.78;;;10.83;nan
70758;BME280;59316;52.964;7.102;2023-04-08T09:11:24;102604.59;;;10.89;nan
70758;BME280;59316;52.964;7.102;2023-04-08T09:16:46;102601.84;;;10.65;nan
70758;BME280;59316;52.964;7.102;2023-04-08T09:22:09;102608.03;;;10.63;nan
70758;BME280;59316;52.964;7.102;2023-04-08T09:27:34;102609.38;;;11.03;nan
70758;BME280;59316;52.964;7.102;2023-04-08T09:32:56;102610.97;;;11.58;nan
70758;BME280;59316;52.964;7.102;2023-04-08T09:38:18;102609.81;;;11.90;nan
70758;BME280;59316;52.964;7.102;2023-04-08T09:43:42;102610.16;;;12.05;nan
70758;BME280;59316;52.964;7.102;2023-04-08T09:49:08;102602.78;;;11.91;nan
70758;BME280;59316;52.964;7.102;2023-04-08T09:55:00;102609.38;;;12.03;nan
70758;BME280;59316;52.964;7.102;2023-04-08T10:00:33;102603.44;;;11.97;nan
70758;BME280;59316;52.964;7.102;2023-04-08T10:06:00;102609.97;;;11.86;nan
70758;BME280;59316;52.964;7.102;2023-04-08T10:11:23;102603.06;;;11.83;nan
70758;BME280;59316;52.964;7.102;2023-04-08T10:16:44;102608.94;;;11.41;nan
70758;BME280;59316;52.964;7.102;2023-04-08T10:22:45;102609.81;;;11.41;nan
70758;BME280;59316;52.964;7.102;2023-04-08T10:33:32;102602.22;;;12.52;nan
70758;BME280;59316;52.964;7.102;2023-04-08T10:38:55;102605.50;;;12.35;nan
70758;BME280;59316;52.964;7.102;2023-04-08T10:44:24;102606.88;;;12.45;nan
70758;BME280;59316;52.964;7.102;2023-04-08T10:49:46;102608.28;;;12.54;nan
70758;BME280;59316;52.964;7.102;2023-04-08T10:55:08;102607.22;;;12.12;nan
70758;BME280;59316;52.964;7.102;2023-04-08T11:00:35;102611.50;;;11.67;nan
70758;BME280;59316;52.964;7.102;2023-04-08T11:05:57;102607.94;;;11.94;nan
70758;BME280;59316;52.964;7.102;2023-04-08T11:11:20;102598.75;;;11.82;nan
70758;BME280;59316;52.964;7.102;2023-04-08T11:16:42;102605.94;;;12.00;nan
70758;BME280;59316;52.964;7.102;2023-04-08T11:22:04;102609.16;;;12.07;nan
70758;BME280;59316;52.964;7.102;2023-04-08T11:27:26;102604.72;;;11.86;nan
70758;BME280;59316;52.964;7.102;2023-04-08T11:32:47;102608.84;;;11.93;nan
70758;BME280;59316;52.964;7.102;2023-04-08T11:38:10;102609.22;;;11.58;nan
70758;BME280;59316;52.964;7.102;2023-04-08T11:43:32;102613.06;;;11.73;nan
70758;BME280;59316;52.964;7.102;2023-04-08T11:49:07;102606.75;;;12.03;nan
70758;BME280;59316;52.964;7.102;2023-04-08T11:54:31;102622.78;;;12.41;nan
70758;BME280;59316;52.964;7.102;2023-04-08T11:59:52;102622.97;;;12.36;nan
70758;BME280;59316;52.964;7.102;2023-04-08T12:05:14;102614.13;;;12.15;nan
70758;BME280;59316;52.964;7.102;2023-04-08T12:10:36;102618.41;;;12.63;nan
70758;BME280;59316;52.964;7.102;2023-04-08T12:15:57;102622.25;;;12.55;nan
70758;BME280;59316;52.964;7.102;2023-04-08T12:21:19;102613.50;;;12.76;nan
70758;BME280;59316;52.964;7.102;2023-04-08T12:26:41;102623.41;;;12.70;nan
70758;BME280;59316;52.964;7.102;2023-04-08T12:32:02;102598.63;;;12.55;nan
70758;BME280;59316;52.964;7.102;2023-04-08T12:37:24;102617.53;;;12.41;nan
70758;BME280;59316;52.964;7.102;2023-04-08T12:42:45;102613.81;;;12.69;nan
70758;BME280;59316;52.964;7.102;2023-04-08T12:48:07;102618.28;;;12.89;nan
70758;BME280;59316;52.964;7.102;2023-04-08T12:53:28;102615.50;;;12.92;nan
70758;BME280;59316;52.964;7.102;2023-04-08T12:58:50;102613.38;;;13.02;nan
70758;BME280;59316;52.964;7.102;2023-04-08T13:04:11;102611.31;;;13.08;nan
70758;BME280;59316;52.964;7.102;2023-04-08T13:09:33;102603.09;;;13.37;nan
70758;BME280;59316;52.964;7.102;2023-04-08T13:14:54;102612.94;;;13.33;nan
70758;BME280;59316;52.964;7.102;2023-04-08T13:20:16;102609.06;;;13.82;nan
70758;BME280;59316;52.964;7.102;2023-04-08T13:25:38;102589.63;;;14.05;nan
70758;BME280;59316;52.964;7.102;2023-04-08T13:30:59;102587.47;;;14.13;nan
70758;BME280;59316;52.964;7.102;2023-04-08T13:36:21;102596.44;;;13.69;nan
70758;BME280;59316;52.964;7.102;2023-04-08T13:41:43;102584.72;;;14.34;nan
70758;BME280;59316;52.964;7.102;2023-04-08T13:47:04;102584.94;;;14.66;nan
70758;BME280;59316;52.964;7.102;2023-04-08T13:52:26;102589.69;;;13.83;nan
70758;BME280;59316;52.964;7.102;2023-04-08T13:57:47;102588.91;;;14.01;nan
70758;BME280;59316;52.964;7.102;2023-04-08T14:03:09;102572.59;;;14.12;nan
70758;BME280;59316;52.964;7.102;2023-04-08T14:08:31;102581.03;;;14.38;nan
70758;BME280;59316;52.964;7.102;2023-04-08T14:13:52;102576.13;;;15.02;nan
70758;BME280;59316;52.964;7.102;2023-04-08T14:19:14;102577.00;;;15.02;nan
70758;BME280;59316;52.964;7.102;2023-04-08T14:24:36;102577.75;;;14.69;nan
70758;BME280;59316;52.964;7.102;2023-04-08T14:29:57;102571.28;;;14.76;nan
70758;BME280;59316;52.964;7.102;2023-04-08T14:35:19;102568.78;;;14.56;nan
70758;BME280;59316;52.964;7.102;2023-04-08T14:40:40;102565.59;;;14.67;nan
70758;BME280;59316;52.964;7.102;2023-04-08T14:46:02;102564.50;;;14.53;nan
70758;BME280;59316;52.964;7.102;2023-04-08T14:51:24;102575.66;;;14.76;nan
70758;BME280;59316;52.964;7.102;2023-04-08T14:56:45;102559.69;;;14.97;nan
70758;BME280;59316;52.964;7.102;2023-04-08T15:02:07;102560.50;;;14.64;nan
70758;BME280;59316;52.964;7.102;2023-04-08T15:07:28;102560.44;;;14.83;nan
70758;BME280;59316;52.964;7.102;2023-04-08T15:12:50;102553.63;;;15.30;nan
70758;BME280;59316;52.964;7.102;2023-04-08T15:18:11;102556.22;;;15.81;nan
70758;BME280;59316;52.964;7.102;2023-04-08T15:23:33;102540.06;;;15.37;nan
70758;BME280;59316;52.964;7.102;2023-04-08T15:28:54;102556.66;;;15.22;nan
70758;BME280;59316;52.964;7.102;2023-04-08T15:34:16;102555.50;;;15.27;nan
70758;BME280;59316;52.964;7.102;2023-04-08T15:39:37;102556.13;;;15.15;nan
70758;BME280;59316;52.964;7.102;2023-04-08T15:44:59;102553.59;;;15.14;nan
70758;BME280;59316;52.964;7.102;2023-04-08T15:50:21;102552.19;;;15.06;nan
70758;BME280;59316;52.964;7.102;2023-04-08T15:55:42;102552.03;;;14.57;nan
70758;BME280;59316;52.964;7.102;2023-04-08T16:01:04;102550.81;;;14.64;nan
70758;BME280;59316;52.964;7.102;2023-04-08T16:06:25;102546.97;;;14.35;nan
70758;BME280;59316;52.964;7.102;2023-04-08T16:11:47;102550.34;;;14.19;nan
70758;BME280;59316;52.964;7.102;2023-04-08T16:17:09;102554.53;;;14.23;nan
70758;BME280;59316;52.964;7.102;2023-04-08T16:22:30;102548.00;;;14.13;nan
70758;BME280;59316;52.964;7.102;2023-04-08T16:27:52;102562.84;;;13.95;nan
70758;BME280;59316;52.964;7.102;2023-04-08T16:33:13;102565.84;;;14.06;nan
70758;BME280;59316;52.964;7.102;2023-04-08T16:38:34;102572.34;;;13.78;nan
70758;BME280;59316;52.964;7.102;2023-04-08T16:43:56;102573.88;;;13.84;nan
70758;BME280;59316;52.964;7.102;2023-04-08T16:49:17;102564.47;;;13.78;nan
70758;BME280;59316;52.964;7.102;2023-04-08T16:54:39;102569.25;;;13.89;nan
70758;BME280;59316;52.964;7.102;2023-04-08T17:00:00;102570.91;;;13.71;nan
70758;BME280;59316;52.964;7.102;2023-04-08T17:05:22;102577.97;;;13.71;nan
70758;BME280;59316;52.964;7.102;2023-04-08T17:10:43;102577.59;;;13.59;nan
70758;BME280;59316;52.964;7.102;2023-04-08T17:16:05;102586.53;;;13.55;nan
70758;BME280;59316;52.964;7.102;2023-04-08T17:21:30;102583.66;;;13.61;nan
70758;BME280;59316;52.964;7.102;2023-04-08T17:26:52;102592.94;;;13.50;nan
70758;BME280;59316;52.964;7.102;2023-04-08T17:32:14;102587.16;;;13.41;nan
70758;BME280;59316;52.964;7.102;2023-04-08T17:37:35;102585.59;;;13.17;nan
70758;BME280;59316;52.964;7.102;2023-04-08T17:42:57;102591.44;;;13.03;nan
70758;BME280;59316;52.964;7.102;2023-04-08T17:48:19;102591.03;;;12.91;nan
70758;BME280;59316;52.964;7.102;2023-04-08T17:53:40;102602.63;;;12.86;nan
70758;BME280;59316;52.964;7.102;2023-04-08T17:59:02;102596.00;;;12.77;nan
70758;BME280;59316;52.964;7.102;2023-04-08T18:04:23;102595.03;;;12.79;nan
70758;BME280;59316;52.964;7.102;2023-04-08T18:09:48;102606.31;;;12.81;nan
70758;BME280;59316;52.964;7.102;2023-04-08T18:15:10;102601.69;;;12.66;nan
70758;BME280;59316;52.964;7.102;2023-04-08T18:20:35;102606.50;;;12.55;nan
70758;BME280;59316;52.964;7.102;2023-04-08T18:25:57;102613.09;;;12.43;nan
70758;BME280;59316;52.964;7.102;2023-04-08T18:31:18;102615.34;;;12.52;nan
70758;BME280;59316;52.964;7.102;2023-04-08T18:36:40;102620.50;;;12.55;nan
70758;BME280;59316;52.964;7.102;2023-04-08T18:42:02;102639.94;;;12.49;nan
70758;BME280;59316;52.964;7.102;2023-04-08T18:47:23;102637.44;;;12.46;nan
70758;BME280;59316;52.964;7.102;2023-04-08T18:52:45;102651.47;;;12.45;nan
70758;BME280;59316;52.964;7.102;2023-04-08T18:58:06;102644.16;;;12.30;nan
70758;BME280;59316;52.964;7.102;2023-04-08T19:03:28;102646.13;;;12.25;nan
70758;BME280;59316;52.964;7.102;2023-04-08T19:08:49;102648.06;;;12.20;nan
70758;BME280;59316;52.964;7.102;2023-04-08T19:14:12;102649.09;;;12.15;nan
70758;BME280;59316;52.964;7.102;2023-04-08T19:19:33;102655.47;;;12.08;nan
70758;BME280;59316;52.964;7.102;2023-04-08T19:24:55;102651.53;;;11.96;nan
70758;BME280;59316;52.964;7.102;2023-04-08T19:30:16;102662.13;;;11.93;nan
70758;BME280;59316;52.964;7.102;2023-04-08T19:35:38;102656.41;;;11.82;nan
70758;BME280;59316;52.964;7.102;2023-04-08T19:41:00;102670.75;;;11.72;nan
70758;BME280;59316;52.964;7.102;2023-04-08T19:46:21;102675.09;;;11.73;nan
70758;BME280;59316;52.964;7.102;2023-04-08T19:51:43;102675.31;;;11.66;nan
70758;BME280;59316;52.964;7.102;2023-04-08T19:57:05;102671.69;;;11.71;nan
70758;BME280;59316;52.964;7.102;2023-04-08T20:02:26;102669.97;;;11.70;nan
70758;BME280;59316;52.964;7.102;2023-04-08T20:07:48;102669.28;;;11.64;nan
70758;BME280;59316;52.964;7.102;2023-04-08T20:13:09;102673.41;;;11.46;nan
70758;BME280;59316;52.964;7.102;2023-04-08T20:18:31;102682.47;;;11.36;nan
70758;BME280;59316;52.964;7.102;2023-04-08T20:23:53;102683.91;;;11.18;nan
70758;BME280;59316;52.964;7.102;2023-04-08T20:29:14;102677.13;;;11.12;nan
70758;BME280;59316;52.964;7.102;2023-04-08T20:34:36;102682.31;;;11.14;nan
70758;BME280;59316;52.964;7.102;2023-04-08T20:39:57;102685.13;;;11.08;nan
70758;BME280;59316;52.964;7.102;2023-04-08T20:45:19;102685.13;;;11.08;nan
70758;BME280;59316;52.964;7.102;2023-04-08T20:50:40;102699.66;;;10.90;nan
70758;BME280;59316;52.964;7.102;2023-04-08T20:56:02;102700.53;;;10.90;nan
70758;BME280;59316;52.964;7.102;2023-04-08T21:01:24;102689.97;;;10.93;nan
70758;BME280;59316;52.964;7.102;2023-04-08T21:06:47;102694.63;;;10.83;nan
70758;BME280;59316;52.964;7.102;2023-04-08T21:12:08;102699.91;;;10.53;nan
70758;BME280;59316;52.964;7.102;2023-04-08T21:17:30;102705.59;;;10.36;nan
70758;BME280;59316;52.964;7.102;2023-04-08T21:22:51;102708.03;;;10.43;nan
70758;BME280;59316;52.964;7.102;2023-04-08T21:28:13;102700.25;;;10.40;nan
70758;BME280;59316;52.964;7.102;2023-04-08T21:33:34;102700.50;;;10.32;nan
70758;BME280;59316;52.964;7.102;2023-04-08T21:38:56;102702.81;;;10.43;nan
70758;BME280;59316;52.964;7.102;2023-04-08T21:44:17;102703.00;;;10.35;nan
70758;BME280;59316;52.964;7.102;2023-04-08T21:49:39;102701.09;;;10.42;nan
70758;BME280;59316;52.964;7.102;2023-04-08T21:55:01;102696.69;;;10.42;nan
70758;BME280;59316;52.964;7.102;2023-04-08T22:00:23;102704.72;;;10.36;nan
70758;BME280;59316;52.964;7.102;2023-04-08T22:05:44;102708.34;;;10.32;nan
70758;BME280;59316;52.964;7.102;2023-04-08T22:11:06;102704.06;;;10.29;nan
70758;BME280;59316;52.964;7.102;2023-04-08T22:16:28;102712.75;;;10.30;nan
70758;BME280;59316;52.964;7.102;2023-04-08T22:21:49;102714.09;;;10.13;nan
70758;BME280;59316;52.964;7.102;2023-04-08T22:27:11;102698.47;;;10.10;nan
70758;BME280;59316;52.964;7.102;2023-04-08T22:32:32;102701.09;;;10.10;nan
70758;BME280;59316;52.964;7.102;2023-04-08T22:37:54;102709.09;;;10.04;nan
70758;BME280;59316;52.964;7.102;2023-04-08T22:43:15;102708.16;;;10.08;nan
70758;BME280;59316;52.964;7.102;2023-04-08T22:48:37;102700.19;;;10.11;nan
70758;BME280;59316;52.964;7.102;2023-04-08T22:53:58;102702.88;;;10.10;nan
70758;BME280;59316;52.964;7.102;2023-04-08T22:59:20;102703.09;;;10.02;nan
70758;BME280;59316;52.964;7.102;2023-04-08T23:04:42;102697.75;;;10.05;nan
70758;BME280;59316;52.964;7.102;2023-04-08T23:10:03;102690.69;;;10.09;nan
70758;BME280;59316;52.964;7.102;2023-04-08T23:15:25;102700.41;;;10.03;nan
70758;BME280;59316;52.964;7.102;2023-04-08T23:20:54;102701.16;;;10.09;nan
70758;BME280;59316;52.964;7.102;2023-04-08T23:26:17;102702.69;;;10.16;nan
70758;BME280;59316;52.964;7.102;2023-04-08T23:31:39;102698.41;;;10.13;nan
70758;BME280;59316;52.964;7.102;2023-04-08T23:37:01;102697.50;;;10.14;nan
70758;BME280;59316;52.964;7.102;2023-04-08T23:42:23;102694.41;;;10.00;nan
70758;BME280;59316;52.964;7.102;2023-04-08T23:47:45;102688.34;;;9.99;nan
70758;BME280;59316;52.964;7.102;2023-04-08T23:53:06;102684.72;;;10.03;nan
70758;BME280;59316;52.964;7.102;2023-04-08T23:58:28;102679.50;;;10.03;nan
